KEAU/EAU METAR and TAF weather

Enter ICAO airport designator
Station Type Date Time Source
KEAU METAR 2022/07/01 01:56 UTC NOAA

KEAU 010156Z AUTO 26006KT 10SM CLR 24/19 A2984 RMK AO2 SLP101 T02440189


Station Type Date Time Source
KEAU Decoded METAR 2022/07/01 01:56 UTC NOAA

EAU CLAIRE CHIPPEWA VALLEY, WI, United States (KEAU) 44-52N 091-29W
Jun 30, 2022 - 09:56 PM EDT / 2022.07.01 0156 UTC
Wind: from the W (260 degrees) at 7 MPH (6 KT):0
Visibility: 10 mile(s):0
Sky conditions: clear
Temperature: 75.9 F (24.4 C)
Dew Point: 66.0 F (18.9 C)
Relative Humidity: 71%
Pressure (altimeter): 29.84 in. Hg (1010 hPa)
ob: KEAU 010156Z AUTO 26006KT 10SM CLR 24/19 A2984 RMK AO2 SLP101 T02440189
cycle: 2

Station Type Date Time Source
KEAU TAF 2022/06/30 18:36 UTC NOAA

TAF KEAU 301734Z 3018/0118 22012G18KT P6SM SCT150
FM010200 30005KT P6SM SCT120

Example: see airport list